sensor_id;sensor_type;location;lat;lon;timestamp;P1;durP1;ratioP1;P2;durP2;ratioP2
55025;SDS011;40925;45.666;18.994;2023-06-19T00:00:18;10.60;;;6.78;;
55025;SDS011;40925;45.666;18.994;2023-06-19T00:02:44;9.38;;;6.80;;
55025;SDS011;40925;45.666;18.994;2023-06-19T00:05:12;9.43;;;6.60;;
55025;SDS011;40925;45.666;18.994;2023-06-19T00:07:38;10.15;;;6.95;;
55025;SDS011;40925;45.666;18.994;2023-06-19T00:10:04;12.02;;;7.35;;
55025;SDS011;40925;45.666;18.994;2023-06-19T00:12:31;9.27;;;6.70;;
55025;SDS011;40925;45.666;18.994;2023-06-19T00:14:57;9.27;;;6.90;;
55025;SDS011;40925;45.666;18.994;2023-06-19T00:17:23;9.52;;;7.30;;
55025;SDS011;40925;45.666;18.994;2023-06-19T00:19:51;11.20;;;7.30;;
55025;SDS011;40925;45.666;18.994;2023-06-19T00:22:17;12.10;;;7.30;;
55025;SDS011;40925;45.666;18.994;2023-06-19T00:24:43;8.32;;;6.93;;
55025;SDS011;40925;45.666;18.994;2023-06-19T00:27:09;11.32;;;7.13;;
55025;SDS011;40925;45.666;18.994;2023-06-19T00:29:36;10.60;;;7.40;;
55025;SDS011;40925;45.666;18.994;2023-06-19T00:32:02;8.77;;;7.07;;
55025;SDS011;40925;45.666;18.994;2023-06-19T00:34:29;9.90;;;7.00;;
55025;SDS011;40925;45.666;18.994;2023-06-19T00:36:56;9.15;;;7.07;;
55025;SDS011;40925;45.666;18.994;2023-06-19T00:39:25;9.43;;;7.05;;
55025;SDS011;40925;45.666;18.994;2023-06-19T00:41:52;9.23;;;7.20;;
55025;SDS011;40925;45.666;18.994;2023-06-19T00:44:19;12.00;;;7.85;;
55025;SDS011;40925;45.666;18.994;2023-06-19T00:46:45;11.15;;;7.25;;
55025;SDS011;40925;45.666;18.994;2023-06-19T00:49:11;11.15;;;7.80;;
55025;SDS011;40925;45.666;18.994;2023-06-19T00:51:37;9.23;;;7.18;;
55025;SDS011;40925;45.666;18.994;2023-06-19T00:54:04;10.02;;;7.22;;
55025;SDS011;40925;45.666;18.994;2023-06-19T00:56:31;10.48;;;7.22;;
55025;SDS011;40925;45.666;18.994;2023-06-19T00:58:57;9.57;;;7.53;;
55025;SDS011;40925;45.666;18.994;2023-06-19T01:01:23;11.25;;;8.02;;
55025;SDS011;40925;45.666;18.994;2023-06-19T01:03:50;10.95;;;7.68;;
55025;SDS011;40925;45.666;18.994;2023-06-19T01:06:19;13.20;;;8.00;;
55025;SDS011;40925;45.666;18.994;2023-06-19T01:11:20;11.30;;;8.20;;
55025;SDS011;40925;45.666;18.994;2023-06-19T01:16:16;10.68;;;7.80;;
55025;SDS011;40925;45.666;18.994;2023-06-19T01:18:42;12.50;;;7.45;;
55025;SDS011;40925;45.666;18.994;2023-06-19T01:21:09;12.02;;;7.95;;
55025;SDS011;40925;45.666;18.994;2023-06-19T01:23:36;13.10;;;7.75;;
55025;SDS011;40925;45.666;18.994;2023-06-19T01:26:02;11.07;;;7.57;;
55025;SDS011;40925;45.666;18.994;2023-06-19T01:28:28;11.88;;;8.07;;
55025;SDS011;40925;45.666;18.994;2023-06-19T01:30:54;9.40;;;7.43;;
55025;SDS011;40925;45.666;18.994;2023-06-19T01:33:28;10.20;;;7.43;;
55025;SDS011;40925;45.666;18.994;2023-06-19T01:35:57;10.30;;;7.82;;
55025;SDS011;40925;45.666;18.994;2023-06-19T01:38:24;12.63;;;7.60;;
55025;SDS011;40925;45.666;18.994;2023-06-19T01:40:54;11.95;;;7.60;;
55025;SDS011;40925;45.666;18.994;2023-06-19T01:43:21;10.15;;;7.32;;
55025;SDS011;40925;45.666;18.994;2023-06-19T01:45:47;16.00;;;8.18;;
55025;SDS011;40925;45.666;18.994;2023-06-19T01:48:14;10.65;;;7.82;;
55025;SDS011;40925;45.666;18.994;2023-06-19T01:50:50;10.65;;;7.80;;
55025;SDS011;40925;45.666;18.994;2023-06-19T01:53:16;12.95;;;7.65;;
55025;SDS011;40925;45.666;18.994;2023-06-19T01:55:42;9.80;;;6.65;;
55025;SDS011;40925;45.666;18.994;2023-06-19T01:58:08;9.65;;;6.68;;
55025;SDS011;40925;45.666;18.994;2023-06-19T02:00:34;10.23;;;7.18;;
55025;SDS011;40925;45.666;18.994;2023-06-19T02:03:01;10.95;;;7.53;;
55025;SDS011;40925;45.666;18.994;2023-06-19T02:05:27;11.65;;;7.57;;
55025;SDS011;40925;45.666;18.994;2023-06-19T02:07:53;10.60;;;7.57;;
55025;SDS011;40925;45.666;18.994;2023-06-19T02:10:19;11.85;;;7.50;;
55025;SDS011;40925;45.666;18.994;2023-06-19T02:12:45;10.65;;;7.40;;
55025;SDS011;40925;45.666;18.994;2023-06-19T02:15:11;12.63;;;7.88;;
55025;SDS011;40925;45.666;18.994;2023-06-19T02:17:38;10.98;;;7.30;;
55025;SDS011;40925;45.666;18.994;2023-06-19T02:20:04;12.30;;;7.80;;
55025;SDS011;40925;45.666;18.994;2023-06-19T02:22:34;10.73;;;7.63;;
55025;SDS011;40925;45.666;18.994;2023-06-19T02:25:00;12.52;;;8.05;;
55025;SDS011;40925;45.666;18.994;2023-06-19T02:27:27;10.65;;;7.35;;
55025;SDS011;40925;45.666;18.994;2023-06-19T02:29:53;14.93;;;7.82;;
55025;SDS011;40925;45.666;18.994;2023-06-19T02:32:19;10.52;;;7.20;;
55025;SDS011;40925;45.666;18.994;2023-06-19T02:34:45;13.02;;;7.43;;
55025;SDS011;40925;45.666;18.994;2023-06-19T02:37:11;13.48;;;7.32;;
55025;SDS011;40925;45.666;18.994;2023-06-19T02:39:37;11.45;;;7.65;;
55025;SDS011;40925;45.666;18.994;2023-06-19T02:42:03;12.57;;;7.40;;
55025;SDS011;40925;45.666;18.994;2023-06-19T02:44:30;12.63;;;8.10;;
55025;SDS011;40925;45.666;18.994;2023-06-19T02:46:56;12.05;;;8.70;;
55025;SDS011;40925;45.666;18.994;2023-06-19T02:49:22;14.82;;;8.70;;
55025;SDS011;40925;45.666;18.994;2023-06-19T02:51:48;13.23;;;8.43;;
55025;SDS011;40925;45.666;18.994;2023-06-19T02:54:14;14.88;;;9.13;;
55025;SDS011;40925;45.666;18.994;2023-06-19T02:56:40;12.80;;;8.63;;
55025;SDS011;40925;45.666;18.994;2023-06-19T02:59:06;10.98;;;9.02;;
55025;SDS011;40925;45.666;18.994;2023-06-19T03:01:32;14.13;;;9.38;;
55025;SDS011;40925;45.666;18.994;2023-06-19T03:03:59;17.02;;;9.68;;
55025;SDS011;40925;45.666;18.994;2023-06-19T03:06:25;14.90;;;9.88;;
55025;SDS011;40925;45.666;18.994;2023-06-19T03:08:51;13.30;;;9.07;;
55025;SDS011;40925;45.666;18.994;2023-06-19T03:11:17;13.27;;;9.02;;
55025;SDS011;40925;45.666;18.994;2023-06-19T03:16:10;14.93;;;9.32;;
55025;SDS011;40925;45.666;18.994;2023-06-19T03:18:36;12.85;;;8.93;;
55025;SDS011;40925;45.666;18.994;2023-06-19T03:21:02;15.05;;;9.43;;
55025;SDS011;40925;45.666;18.994;2023-06-19T03:23:28;13.32;;;8.77;;
55025;SDS011;40925;45.666;18.994;2023-06-19T03:25:54;14.18;;;9.45;;
55025;SDS011;40925;45.666;18.994;2023-06-19T03:28:22;14.57;;;9.15;;
55025;SDS011;40925;45.666;18.994;2023-06-19T03:30:48;13.32;;;8.75;;
55025;SDS011;40925;45.666;18.994;2023-06-19T03:33:14;14.63;;;9.23;;
55025;SDS011;40925;45.666;18.994;2023-06-19T03:35:40;14.80;;;9.50;;
55025;SDS011;40925;45.666;18.994;2023-06-19T03:38:06;14.32;;;9.15;;
55025;SDS011;40925;45.666;18.994;2023-06-19T03:40:32;14.00;;;9.10;;
55025;SDS011;40925;45.666;18.994;2023-06-19T03:42:58;13.32;;;9.07;;
55025;SDS011;40925;45.666;18.994;2023-06-19T03:45:24;15.27;;;9.73;;
55025;SDS011;40925;45.666;18.994;2023-06-19T03:47:50;16.60;;;8.57;;
55025;SDS011;40925;45.666;18.994;2023-06-19T03:50:16;12.63;;;8.65;;
55025;SDS011;40925;45.666;18.994;2023-06-19T03:52:42;17.80;;;8.35;;
55025;SDS011;40925;45.666;18.994;2023-06-19T03:55:08;14.25;;;8.18;;
55025;SDS011;40925;45.666;18.994;2023-06-19T03:57:35;15.45;;;9.00;;
55025;SDS011;40925;45.666;18.994;2023-06-19T04:00:01;18.20;;;8.88;;
55025;SDS011;40925;45.666;18.994;2023-06-19T04:02:28;16.77;;;8.60;;
55025;SDS011;40925;45.666;18.994;2023-06-19T04:04:54;16.67;;;9.07;;
55025;SDS011;40925;45.666;18.994;2023-06-19T04:07:20;14.18;;;9.05;;
55025;SDS011;40925;45.666;18.994;2023-06-19T04:09:47;16.85;;;9.20;;
55025;SDS011;40925;45.666;18.994;2023-06-19T04:12:13;17.27;;;9.98;;
55025;SDS011;40925;45.666;18.994;2023-06-19T04:14:39;17.60;;;9.52;;
55025;SDS011;40925;45.666;18.994;2023-06-19T04:17:05;13.88;;;8.98;;
55025;SDS011;40925;45.666;18.994;2023-06-19T04:19:31;17.17;;;9.43;;
55025;SDS011;40925;45.666;18.994;2023-06-19T04:21:57;14.07;;;9.38;;
55025;SDS011;40925;45.666;18.994;2023-06-19T04:24:23;13.57;;;9.23;;
55025;SDS011;40925;45.666;18.994;2023-06-19T04:26:49;15.45;;;9.90;;
55025;SDS011;40925;45.666;18.994;2023-06-19T04:29:15;17.95;;;9.80;;
55025;SDS011;40925;45.666;18.994;2023-06-19T04:31:45;15.10;;;10.43;;
55025;SDS011;40925;45.666;18.994;2023-06-19T04:34:17;15.07;;;9.48;;
55025;SDS011;40925;45.666;18.994;2023-06-19T04:36:49;17.20;;;10.00;;
55025;SDS011;40925;45.666;18.994;2023-06-19T04:39:15;17.50;;;9.70;;
55025;SDS011;40925;45.666;18.994;2023-06-19T04:41:44;15.98;;;9.57;;
55025;SDS011;40925;45.666;18.994;2023-06-19T04:44:10;15.63;;;9.77;;
55025;SDS011;40925;45.666;18.994;2023-06-19T04:46:37;18.98;;;9.70;;
55025;SDS011;40925;45.666;18.994;2023-06-19T04:49:03;14.60;;;9.55;;
55025;SDS011;40925;45.666;18.994;2023-06-19T04:51:33;13.90;;;9.07;;
55025;SDS011;40925;45.666;18.994;2023-06-19T04:53:59;14.95;;;8.77;;
55025;SDS011;40925;45.666;18.994;2023-06-19T04:56:25;12.55;;;8.93;;
55025;SDS011;40925;45.666;18.994;2023-06-19T04:58:52;16.55;;;9.20;;
55025;SDS011;40925;45.666;18.994;2023-06-19T05:01:21;14.25;;;9.27;;
55025;SDS011;40925;45.666;18.994;2023-06-19T05:03:52;13.75;;;8.70;;
55025;SDS011;40925;45.666;18.994;2023-06-19T05:06:18;14.55;;;9.07;;
55025;SDS011;40925;45.666;18.994;2023-06-19T05:08:44;15.43;;;8.50;;
55025;SDS011;40925;45.666;18.994;2023-06-19T05:11:10;13.18;;;8.32;;
55025;SDS011;40925;45.666;18.994;2023-06-19T05:13:36;15.27;;;9.35;;
55025;SDS011;40925;45.666;18.994;2023-06-19T05:16:03;15.70;;;9.70;;
55025;SDS011;40925;45.666;18.994;2023-06-19T05:18:29;12.50;;;9.32;;
55025;SDS011;40925;45.666;18.994;2023-06-19T05:20:55;15.48;;;9.60;;
55025;SDS011;40925;45.666;18.994;2023-06-19T05:23:21;13.82;;;9.00;;
55025;SDS011;40925;45.666;18.994;2023-06-19T05:25:47;13.80;;;9.50;;
55025;SDS011;40925;45.666;18.994;2023-06-19T05:28:13;12.30;;;8.90;;
55025;SDS011;40925;45.666;18.994;2023-06-19T05:30:39;13.20;;;9.05;;
55025;SDS011;40925;45.666;18.994;2023-06-19T05:33:05;14.95;;;10.05;;
55025;SDS011;40925;45.666;18.994;2023-06-19T05:35:31;17.08;;;11.93;;
55025;SDS011;40925;45.666;18.994;2023-06-19T05:37:57;12.85;;;8.43;;
55025;SDS011;40925;45.666;18.994;2023-06-19T05:40:23;12.13;;;8.15;;
55025;SDS011;40925;45.666;18.994;2023-06-19T05:42:49;10.65;;;7.53;;
55025;SDS011;40925;45.666;18.994;2023-06-19T05:45:14;10.57;;;7.32;;
55025;SDS011;40925;45.666;18.994;2023-06-19T05:47:41;10.18;;;7.10;;
55025;SDS011;40925;45.666;18.994;2023-06-19T05:50:22;11.70;;;7.65;;
55025;SDS011;40925;45.666;18.994;2023-06-19T05:52:48;11.40;;;7.97;;
55025;SDS011;40925;45.666;18.994;2023-06-19T05:55:14;11.10;;;7.15;;
55025;SDS011;40925;45.666;18.994;2023-06-19T05:57:40;12.80;;;7.22;;
55025;SDS011;40925;45.666;18.994;2023-06-19T06:00:06;11.68;;;7.53;;
55025;SDS011;40925;45.666;18.994;2023-06-19T06:02:35;13.65;;;8.85;;
55025;SDS011;40925;45.666;18.994;2023-06-19T06:05:01;12.57;;;7.68;;
55025;SDS011;40925;45.666;18.994;2023-06-19T06:07:27;11.65;;;7.05;;
55025;SDS011;40925;45.666;18.994;2023-06-19T06:09:55;8.68;;;6.60;;
55025;SDS011;40925;45.666;18.994;2023-06-19T06:12:21;10.25;;;6.43;;
55025;SDS011;40925;45.666;18.994;2023-06-19T06:14:47;10.63;;;6.82;;
55025;SDS011;40925;45.666;18.994;2023-06-19T06:17:13;10.70;;;6.38;;
55025;SDS011;40925;45.666;18.994;2023-06-19T06:19:39;9.18;;;6.47;;
55025;SDS011;40925;45.666;18.994;2023-06-19T06:22:05;12.05;;;6.40;;
55025;SDS011;40925;45.666;18.994;2023-06-19T06:24:32;8.20;;;5.57;;
55025;SDS011;40925;45.666;18.994;2023-06-19T06:26:58;9.23;;;6.10;;
55025;SDS011;40925;45.666;18.994;2023-06-19T06:29:24;9.10;;;5.90;;
55025;SDS011;40925;45.666;18.994;2023-06-19T06:31:50;8.50;;;6.18;;
55025;SDS011;40925;45.666;18.994;2023-06-19T06:34:18;9.25;;;5.93;;
55025;SDS011;40925;45.666;18.994;2023-06-19T06:36:44;9.43;;;5.90;;
55025;SDS011;40925;45.666;18.994;2023-06-19T06:39:10;9.25;;;6.47;;
55025;SDS011;40925;45.666;18.994;2023-06-19T06:41:36;9.73;;;6.25;;
55025;SDS011;40925;45.666;18.994;2023-06-19T06:44:02;9.85;;;6.18;;
55025;SDS011;40925;45.666;18.994;2023-06-19T06:46:30;8.25;;;6.13;;
55025;SDS011;40925;45.666;18.994;2023-06-19T06:48:56;9.57;;;6.22;;
55025;SDS011;40925;45.666;18.994;2023-06-19T06:51:22;38.40;;;7.22;;
55025;SDS011;40925;45.666;18.994;2023-06-19T06:53:48;9.70;;;6.10;;
55025;SDS011;40925;45.666;18.994;2023-06-19T06:56:15;8.13;;;5.68;;
55025;SDS011;40925;45.666;18.994;2023-06-19T06:58:41;9.15;;;6.20;;
55025;SDS011;40925;45.666;18.994;2023-06-19T07:01:08;9.43;;;5.78;;
55025;SDS011;40925;45.666;18.994;2023-06-19T07:03:34;7.53;;;5.65;;
55025;SDS011;40925;45.666;18.994;2023-06-19T07:06:01;8.48;;;5.95;;
55025;SDS011;40925;45.666;18.994;2023-06-19T07:08:27;11.45;;;6.07;;
55025;SDS011;40925;45.666;18.994;2023-06-19T07:10:53;8.50;;;5.80;;
55025;SDS011;40925;45.666;18.994;2023-06-19T07:13:19;10.73;;;6.22;;
55025;SDS011;40925;45.666;18.994;2023-06-19T07:15:46;10.27;;;6.03;;
55025;SDS011;40925;45.666;18.994;2023-06-19T07:18:12;9.07;;;6.20;;
55025;SDS011;40925;45.666;18.994;2023-06-19T07:20:38;7.97;;;5.90;;
55025;SDS011;40925;45.666;18.994;2023-06-19T07:23:04;8.80;;;6.53;;
55025;SDS011;40925;45.666;18.994;2023-06-19T07:25:30;9.07;;;6.15;;
55025;SDS011;40925;45.666;18.994;2023-06-19T07:27:59;9.73;;;5.75;;
55025;SDS011;40925;45.666;18.994;2023-06-19T07:30:25;8.00;;;5.78;;
55025;SDS011;40925;45.666;18.994;2023-06-19T07:32:51;6.65;;;5.43;;
55025;SDS011;40925;45.666;18.994;2023-06-19T07:35:17;7.82;;;5.78;;
55025;SDS011;40925;45.666;18.994;2023-06-19T07:37:44;8.73;;;6.03;;
55025;SDS011;40925;45.666;18.994;2023-06-19T07:40:10;8.63;;;6.00;;
55025;SDS011;40925;45.666;18.994;2023-06-19T07:42:36;8.10;;;5.95;;
55025;SDS011;40925;45.666;18.994;2023-06-19T07:45:02;8.00;;;5.95;;
55025;SDS011;40925;45.666;18.994;2023-06-19T07:47:28;9.85;;;5.72;;
55025;SDS011;40925;45.666;18.994;2023-06-19T07:49:55;8.60;;;5.93;;
55025;SDS011;40925;45.666;18.994;2023-06-19T07:52:21;8.32;;;6.07;;
55025;SDS011;40925;45.666;18.994;2023-06-19T07:54:56;8.73;;;5.93;;
55025;SDS011;40925;45.666;18.994;2023-06-19T07:57:23;7.55;;;5.93;;
55025;SDS011;40925;45.666;18.994;2023-06-19T07:59:50;8.23;;;5.70;;
55025;SDS011;40925;45.666;18.994;2023-06-19T08:02:16;8.68;;;6.03;;
55025;SDS011;40925;45.666;18.994;2023-06-19T08:04:42;7.65;;;5.90;;
55025;SDS011;40925;45.666;18.994;2023-06-19T08:07:08;7.88;;;6.18;;
55025;SDS011;40925;45.666;18.994;2023-06-19T08:09:34;8.48;;;6.13;;
55025;SDS011;40925;45.666;18.994;2023-06-19T08:12:01;8.00;;;5.93;;
55025;SDS011;40925;45.666;18.994;2023-06-19T08:14:27;7.97;;;6.20;;
55025;SDS011;40925;45.666;18.994;2023-06-19T08:16:54;9.73;;;6.20;;
55025;SDS011;40925;45.666;18.994;2023-06-19T08:19:20;9.10;;;6.15;;
55025;SDS011;40925;45.666;18.994;2023-06-19T08:21:46;7.63;;;5.90;;
55025;SDS011;40925;45.666;18.994;2023-06-19T08:24:12;9.85;;;6.78;;
55025;SDS011;40925;45.666;18.994;2023-06-19T08:26:37;7.88;;;5.78;;
55025;SDS011;40925;45.666;18.994;2023-06-19T08:29:03;7.43;;;6.20;;
55025;SDS011;40925;45.666;18.994;2023-06-19T08:31:30;8.52;;;6.30;;
55025;SDS011;40925;45.666;18.994;2023-06-19T08:33:56;7.03;;;6.03;;
55025;SDS011;40925;45.666;18.994;2023-06-19T08:36:22;9.10;;;5.88;;
55025;SDS011;40925;45.666;18.994;2023-06-19T08:38:48;10.15;;;6.35;;
55025;SDS011;40925;45.666;18.994;2023-06-19T08:41:18;8.07;;;6.10;;
55025;SDS011;40925;45.666;18.994;2023-06-19T08:43:48;9.10;;;5.75;;
55025;SDS011;40925;45.666;18.994;2023-06-19T08:46:15;8.73;;;5.80;;
55025;SDS011;40925;45.666;18.994;2023-06-19T08:48:42;10.68;;;6.28;;
55025;SDS011;40925;45.666;18.994;2023-06-19T08:51:12;8.30;;;5.70;;
55025;SDS011;40925;45.666;18.994;2023-06-19T08:53:54;7.18;;;5.90;;
55025;SDS011;40925;45.666;18.994;2023-06-19T08:56:20;11.23;;;6.03;;
55025;SDS011;40925;45.666;18.994;2023-06-19T08:58:46;10.13;;;5.82;;
55025;SDS011;40925;45.666;18.994;2023-06-19T09:01:19;7.35;;;5.72;;
55025;SDS011;40925;45.666;18.994;2023-06-19T09:03:45;7.97;;;5.90;;
55025;SDS011;40925;45.666;18.994;2023-06-19T09:06:15;7.15;;;5.45;;
55025;SDS011;40925;45.666;18.994;2023-06-19T09:08:41;7.63;;;5.70;;
55025;SDS011;40925;45.666;18.994;2023-06-19T09:11:07;6.45;;;5.35;;
55025;SDS011;40925;45.666;18.994;2023-06-19T09:13:33;7.60;;;5.50;;
55025;SDS011;40925;45.666;18.994;2023-06-19T09:16:00;11.57;;;6.00;;
55025;SDS011;40925;45.666;18.994;2023-06-19T09:18:30;9.95;;;5.70;;
55025;SDS011;40925;45.666;18.994;2023-06-19T09:20:56;9.27;;;5.65;;
55025;SDS011;40925;45.666;18.994;2023-06-19T09:23:23;9.98;;;5.68;;
55025;SDS011;40925;45.666;18.994;2023-06-19T09:25:50;6.85;;;5.63;;
55025;SDS011;40925;45.666;18.994;2023-06-19T09:28:20;6.80;;;5.50;;
55025;SDS011;40925;45.666;18.994;2023-06-19T09:30:54;7.95;;;5.68;;
55025;SDS011;40925;45.666;18.994;2023-06-19T09:33:21;8.05;;;5.63;;
55025;SDS011;40925;45.666;18.994;2023-06-19T09:35:48;8.93;;;5.82;;
55025;SDS011;40925;45.666;18.994;2023-06-19T09:38:14;11.80;;;5.72;;
55025;SDS011;40925;45.666;18.994;2023-06-19T09:40:43;6.20;;;5.10;;
55025;SDS011;40925;45.666;18.994;2023-06-19T09:43:10;6.90;;;5.43;;
55025;SDS011;40925;45.666;18.994;2023-06-19T09:45:36;7.07;;;5.60;;
55025;SDS011;40925;45.666;18.994;2023-06-19T09:48:03;6.05;;;5.22;;
55025;SDS011;40925;45.666;18.994;2023-06-19T09:50:29;10.85;;;5.43;;
55025;SDS011;40925;45.666;18.994;2023-06-19T09:52:56;8.38;;;5.28;;
55025;SDS011;40925;45.666;18.994;2023-06-19T09:55:22;6.20;;;4.90;;
55025;SDS011;40925;45.666;18.994;2023-06-19T09:57:53;7.47;;;5.10;;
55025;SDS011;40925;45.666;18.994;2023-06-19T10:00:20;8.10;;;4.80;;
55025;SDS011;40925;45.666;18.994;2023-06-19T10:02:56;6.82;;;5.43;;
55025;SDS011;40925;45.666;18.994;2023-06-19T10:05:29;9.32;;;5.15;;
55025;SDS011;40925;45.666;18.994;2023-06-19T10:07:56;7.20;;;5.47;;
55025;SDS011;40925;45.666;18.994;2023-06-19T10:10:25;8.25;;;5.00;;
55025;SDS011;40925;45.666;18.994;2023-06-19T10:12:58;7.72;;;5.10;;
55025;SDS011;40925;45.666;18.994;2023-06-19T10:15:25;6.00;;;5.00;;
55025;SDS011;40925;45.666;18.994;2023-06-19T10:20:25;7.78;;;5.25;;
55025;SDS011;40925;45.666;18.994;2023-06-19T10:22:56;8.48;;;4.88;;
55025;SDS011;40925;45.666;18.994;2023-06-19T10:25:23;7.03;;;5.00;;
55025;SDS011;40925;45.666;18.994;2023-06-19T10:27:49;6.72;;;5.28;;
55025;SDS011;40925;45.666;18.994;2023-06-19T10:30:17;6.75;;;4.80;;
55025;SDS011;40925;45.666;18.994;2023-06-19T10:32:44;7.43;;;5.20;;
55025;SDS011;40925;45.666;18.994;2023-06-19T10:35:14;7.03;;;4.88;;
55025;SDS011;40925;45.666;18.994;2023-06-19T10:37:41;7.00;;;5.68;;
55025;SDS011;40925;45.666;18.994;2023-06-19T10:40:07;6.82;;;5.22;;
55025;SDS011;40925;45.666;18.994;2023-06-19T10:42:36;7.82;;;5.25;;
55025;SDS011;40925;45.666;18.994;2023-06-19T10:45:03;6.32;;;4.82;;
55025;SDS011;40925;45.666;18.994;2023-06-19T10:47:31;6.85;;;5.30;;
55025;SDS011;40925;45.666;18.994;2023-06-19T10:49:57;5.88;;;5.20;;
55025;SDS011;40925;45.666;18.994;2023-06-19T10:52:23;7.18;;;5.57;;
55025;SDS011;40925;45.666;18.994;2023-06-19T10:54:53;6.47;;;4.93;;
55025;SDS011;40925;45.666;18.994;2023-06-19T10:57:25;7.80;;;5.50;;
55025;SDS011;40925;45.666;18.994;2023-06-19T11:00:00;6.05;;;5.15;;
55025;SDS011;40925;45.666;18.994;2023-06-19T11:02:26;7.65;;;5.15;;
55025;SDS011;40925;45.666;18.994;2023-06-19T11:04:52;7.72;;;5.32;;
55025;SDS011;40925;45.666;18.994;2023-06-19T11:07:19;6.90;;;5.22;;
55025;SDS011;40925;45.666;18.994;2023-06-19T11:09:45;7.47;;;5.25;;
55025;SDS011;40925;45.666;18.994;2023-06-19T11:12:11;6.47;;;5.40;;
55025;SDS011;40925;45.666;18.994;2023-06-19T11:14:37;8.30;;;5.50;;
55025;SDS011;40925;45.666;18.994;2023-06-19T11:17:08;7.78;;;5.43;;
55025;SDS011;40925;45.666;18.994;2023-06-19T11:19:34;6.72;;;5.15;;
55025;SDS011;40925;45.666;18.994;2023-06-19T11:22:03;7.40;;;5.55;;
55025;SDS011;40925;45.666;18.994;2023-06-19T11:24:29;6.68;;;5.72;;
55025;SDS011;40925;45.666;18.994;2023-06-19T11:27:03;6.72;;;5.40;;
55025;SDS011;40925;45.666;18.994;2023-06-19T11:29:30;6.78;;;5.13;;
55025;SDS011;40925;45.666;18.994;2023-06-19T11:32:07;7.63;;;5.45;;
55025;SDS011;40925;45.666;18.994;2023-06-19T11:34:40;8.70;;;5.60;;
55025;SDS011;40925;45.666;18.994;2023-06-19T11:39:38;6.18;;;5.22;;
55025;SDS011;40925;45.666;18.994;2023-06-19T11:42:04;7.20;;;5.40;;
55025;SDS011;40925;45.666;18.994;2023-06-19T11:44:30;6.45;;;5.40;;
55025;SDS011;40925;45.666;18.994;2023-06-19T11:46:57;7.18;;;5.53;;
55025;SDS011;40925;45.666;18.994;2023-06-19T11:49:25;9.70;;;5.28;;
55025;SDS011;40925;45.666;18.994;2023-06-19T11:51:53;10.48;;;5.45;;
55025;SDS011;40925;45.666;18.994;2023-06-19T11:54:19;6.97;;;5.60;;
55025;SDS011;40925;45.666;18.994;2023-06-19T11:56:45;8.05;;;5.20;;
55025;SDS011;40925;45.666;18.994;2023-06-19T11:59:12;6.70;;;5.53;;
55025;SDS011;40925;45.666;18.994;2023-06-19T12:01:39;7.75;;;5.47;;
55025;SDS011;40925;45.666;18.994;2023-06-19T12:04:05;7.57;;;5.25;;
55025;SDS011;40925;45.666;18.994;2023-06-19T12:06:31;7.65;;;5.28;;
55025;SDS011;40925;45.666;18.994;2023-06-19T12:08:57;8.60;;;5.43;;
55025;SDS011;40925;45.666;18.994;2023-06-19T12:11:23;7.82;;;5.40;;
55025;SDS011;40925;45.666;18.994;2023-06-19T12:13:50;6.03;;;5.10;;
55025;SDS011;40925;45.666;18.994;2023-06-19T12:16:18;8.02;;;5.22;;
55025;SDS011;40925;45.666;18.994;2023-06-19T12:18:44;6.40;;;5.38;;
55025;SDS011;40925;45.666;18.994;2023-06-19T12:21:09;7.20;;;5.50;;
55025;SDS011;40925;45.666;18.994;2023-06-19T12:23:35;9.40;;;5.63;;
55025;SDS011;40925;45.666;18.994;2023-06-19T12:26:01;7.05;;;5.40;;
55025;SDS011;40925;45.666;18.994;2023-06-19T12:28:26;6.30;;;5.05;;
55025;SDS011;40925;45.666;18.994;2023-06-19T12:30:52;6.57;;;5.50;;
55025;SDS011;40925;45.666;18.994;2023-06-19T12:33:19;6.25;;;5.20;;
55025;SDS011;40925;45.666;18.994;2023-06-19T12:35:47;7.85;;;5.30;;
55025;SDS011;40925;45.666;18.994;2023-06-19T12:38:14;6.72;;;5.60;;
55025;SDS011;40925;45.666;18.994;2023-06-19T12:40:39;7.13;;;5.40;;
55025;SDS011;40925;45.666;18.994;2023-06-19T12:43:05;7.13;;;5.22;;
55025;SDS011;40925;45.666;18.994;2023-06-19T12:45:31;7.15;;;5.30;;
55025;SDS011;40925;45.666;18.994;2023-06-19T12:47:57;8.52;;;5.45;;
55025;SDS011;40925;45.666;18.994;2023-06-19T12:50:23;6.63;;;5.32;;
55025;SDS011;40925;45.666;18.994;2023-06-19T12:52:49;6.70;;;5.35;;
55025;SDS011;40925;45.666;18.994;2023-06-19T12:55:15;7.10;;;5.72;;
55025;SDS011;40925;45.666;18.994;2023-06-19T12:57:41;11.40;;;5.72;;
55025;SDS011;40925;45.666;18.994;2023-06-19T13:00:11;7.18;;;5.30;;
55025;SDS011;40925;45.666;18.994;2023-06-19T13:02:37;9.20;;;5.43;;
55025;SDS011;40925;45.666;18.994;2023-06-19T13:05:05;7.15;;;5.20;;
55025;SDS011;40925;45.666;18.994;2023-06-19T13:07:31;5.95;;;5.32;;
55025;SDS011;40925;45.666;18.994;2023-06-19T13:09:58;9.93;;;5.60;;
55025;SDS011;40925;45.666;18.994;2023-06-19T13:12:24;7.07;;;5.60;;
55025;SDS011;40925;45.666;18.994;2023-06-19T13:14:50;7.53;;;5.22;;
55025;SDS011;40925;45.666;18.994;2023-06-19T13:17:16;7.93;;;5.68;;
55025;SDS011;40925;45.666;18.994;2023-06-19T13:19:42;8.02;;;5.57;;
55025;SDS011;40925;45.666;18.994;2023-06-19T13:22:09;6.32;;;5.22;;
55025;SDS011;40925;45.666;18.994;2023-06-19T13:24:35;6.63;;;5.50;;
55025;SDS011;40925;45.666;18.994;2023-06-19T13:27:00;9.13;;;5.60;;
55025;SDS011;40925;45.666;18.994;2023-06-19T13:29:27;8.23;;;5.90;;
55025;SDS011;40925;45.666;18.994;2023-06-19T13:31:53;6.50;;;5.50;;
55025;SDS011;40925;45.666;18.994;2023-06-19T13:34:19;6.63;;;5.25;;
55025;SDS011;40925;45.666;18.994;2023-06-19T13:36:46;6.47;;;5.60;;
55025;SDS011;40925;45.666;18.994;2023-06-19T13:39:12;6.43;;;5.13;;
55025;SDS011;40925;45.666;18.994;2023-06-19T13:41:39;7.30;;;5.50;;
55025;SDS011;40925;45.666;18.994;2023-06-19T13:44:04;6.40;;;5.10;;
55025;SDS011;40925;45.666;18.994;2023-06-19T13:46:30;6.55;;;5.65;;
55025;SDS011;40925;45.666;18.994;2023-06-19T13:48:56;6.10;;;5.35;;
55025;SDS011;40925;45.666;18.994;2023-06-19T13:51:23;7.20;;;5.05;;
55025;SDS011;40925;45.666;18.994;2023-06-19T13:53:49;6.30;;;5.30;;
55025;SDS011;40925;45.666;18.994;2023-06-19T13:56:15;7.78;;;5.60;;
55025;SDS011;40925;45.666;18.994;2023-06-19T13:58:41;7.28;;;5.22;;
55025;SDS011;40925;45.666;18.994;2023-06-19T14:01:07;8.68;;;5.22;;
55025;SDS011;40925;45.666;18.994;2023-06-19T14:03:33;7.28;;;5.72;;
55025;SDS011;40925;45.666;18.994;2023-06-19T14:06:00;7.07;;;5.40;;
55025;SDS011;40925;45.666;18.994;2023-06-19T14:08:27;6.35;;;5.30;;
55025;SDS011;40925;45.666;18.994;2023-06-19T14:10:54;7.38;;;5.30;;
55025;SDS011;40925;45.666;18.994;2023-06-19T14:13:20;7.18;;;5.15;;
55025;SDS011;40925;45.666;18.994;2023-06-19T14:15:46;8.60;;;5.28;;
55025;SDS011;40925;45.666;18.994;2023-06-19T14:18:11;6.72;;;5.35;;
55025;SDS011;40925;45.666;18.994;2023-06-19T14:20:37;7.28;;;5.30;;
55025;SDS011;40925;45.666;18.994;2023-06-19T14:23:03;9.85;;;5.32;;
55025;SDS011;40925;45.666;18.994;2023-06-19T14:25:29;8.27;;;5.18;;
55025;SDS011;40925;45.666;18.994;2023-06-19T14:27:54;6.97;;;5.55;;
55025;SDS011;40925;45.666;18.994;2023-06-19T14:30:20;8.13;;;5.30;;
55025;SDS011;40925;45.666;18.994;2023-06-19T14:32:47;7.45;;;5.15;;
55025;SDS011;40925;45.666;18.994;2023-06-19T14:35:12;7.15;;;5.18;;
55025;SDS011;40925;45.666;18.994;2023-06-19T14:37:38;6.43;;;4.97;;